This is the latest recevied weather packets stored in our database for station/object HB9ZRH-10. If no packets are shown the sender has not sent any weather packets the latest 1 day(s).
| Time | Temp. | Humidity | Pressure | Rain* | Wind** | Luminosity | Snow |
|---|---|---|---|---|---|---|---|
| 1778039336 | 15.56° C | 50% | 1007.2 hPa | - | - | - | - |
| 1778039036 | 16.11° C | 49% | 1007.3 hPa | - | - | - | - |
| 1778038736 | 17.78° C | 48% | 1007.2 hPa | - | - | - | - |
| 1778038436 | 19.44° C | 48% | 1007.1 hPa | - | - | - | - |
| 1778038136 | 18.33° C | 48% | 1007.3 hPa | - | - | - | - |
| 1778037836 | 16.11° C | 51% | 1007.4 hPa | - | - | - | - |
| 1778037536 | 13.89° C | 52% | 1007.5 hPa | - | - | - | - |
| 1778037236 | 13.33° C | 52% | 1007.6 hPa | - | - | - | - |
| 1778036936 | 12.78° C | 52% | 1007.6 hPa | - | - | - | - |
| 1778036636 | 13.33° C | 52% | 1007.6 hPa | - | - | - | - |
| 1778036336 | 13.33° C | 51% | 1007.7 hPa | - | - | - | - |
| 1778036036 | 13.89° C | 51% | 1007.7 hPa | - | - | - | - |
| 1778035736 | 13.89° C | 50% | 1007.7 hPa | - | - | - | - |
| 1778035436 | 14.44° C | 50% | 1007.7 hPa | - | - | - | - |
| 1778035136 | 16.67° C | 48% | 1007.7 hPa | - | - | - | - |
| 1778034836 | 16.67° C | 48% | 1007.8 hPa | - | - | - | - |
| 1778034536 | 17.78° C | 48% | 1007.8 hPa | - | - | - | - |
| 1778034236 | 15.56° C | 49% | 1007.9 hPa | - | - | - | - |
| 1778033936 | 14.44° C | 50% | 1008 hPa | - | - | - | - |
| 1778033636 | 13.89° C | 49% | 1008 hPa | - | - | - | - |
| 1778032736 | 13.33° C | 49% | 1008.2 hPa | - | - | - | - |
| 1778032436 | 14.44° C | 47% | 1008.2 hPa | - | - | - | - |
| 1778032136 | 15.56° C | 47% | 1008.2 hPa | - | - | - | - |
| 1778031536 | 18.33° C | 44% | 1008.2 hPa | - | - | - | - |
| 1778031236 | 17.22° C | 45% | 1008.3 hPa | - | - | - | - |
* Rain since midnight (hover to see other rain measurements)
** Current wind speed in m/s (hover to see current wind gust speed)